Time;durP1;ratioP1;P1;durP2;ratioP2;P2;SDS_P1;SDS_P2;PMS_P1;PMS_P2;Temp;Humidity;BMP_temperature;BMP_pressure;BME280_temperature;BME280_humidity;BME280_pressure;Samples;Min_cycle;Max_cycle;Signal;HPM_P1;HPM_P2
2022/04/21 00:00:11;;;;;;;;;;;22.10;37.20;;;;;;678431;29;1117;-92
2022/04/21 00:00:32;;;;;;;;;;;21.80;32.70;;;;;;678096;29;1277;-90
2022/04/21 00:00:52;;;;;;;;;;;21.80;34.30;;;;;;678490;29;1312;-90
2022/04/21 00:01:13;;;;;;;;;;;21.80;33.50;;;;;;677967;29;1222;-91
2022/04/21 00:01:34;;;;;;;;;;;21.70;41.00;;;;;;678470;29;1221;-90
2022/04/21 00:01:54;;;;;;;;;;;21.80;35.70;;;;;;680591;29;1203;-91
2022/04/21 00:02:15;;;;;;;;;;;21.80;35.10;;;;;;683269;29;1281;-92
2022/04/21 00:02:35;;;;;;;;;;;21.70;34.00;;;;;;680640;29;1388;-90
2022/04/21 00:02:56;;;;;;;;;;;21.90;34.60;;;;;;680956;29;1380;-88
2022/04/21 00:03:17;;;;;;;;;;;21.90;34.20;;;;;;680581;29;1143;-89
2022/04/21 00:03:37;;;;;;;;;;;21.80;35.30;;;;;;678039;29;1104;-89
2022/04/21 00:03:59;;;;;;;;;;;21.80;34.40;;;;;;678149;29;811;-89
2022/04/21 00:04:20;;;;;;;;;;;21.80;31.70;;;;;;677869;29;1333;-90
2022/04/21 00:04:41;;;;;;;;;;;21.70;35.60;;;;;;678465;29;1359;-91
2022/04/21 00:05:01;;;;;;;;;;;21.70;35.90;;;;;;681277;29;1175;-91
2022/04/21 00:05:22;;;;;;;;;;;21.70;35.50;;;;;;683719;28;1191;-90
2022/04/21 00:05:42;;;;;;;;;;;21.80;35.50;;;;;;683215;29;1348;-90
2022/04/21 00:06:03;;;;;;;;;;;21.70;38.00;;;;;;683435;29;1261;-91
2022/04/21 00:06:24;;;;;;;;;;;21.80;35.30;;;;;;680605;29;1284;-92
2022/04/21 00:06:44;;;;;;;;;;;21.80;32.60;;;;;;677936;29;1961;-91
2022/04/21 00:07:05;;;;;;;;;;;21.70;35.10;;;;;;677784;29;1201;-88
2022/04/21 00:07:26;;;;;;;;;;;21.70;34.50;;;;;;678124;29;1188;-90
2022/04/21 00:07:48;;;;;;;;;;;21.70;35.70;;;;;;680551;29;1143;-89
2022/04/21 00:08:10;;;;;;;;;;;21.80;34.50;;;;;;681256;29;853;-90
2022/04/21 00:08:30;;;;;;;;;;;21.80;34.50;;;;;;683876;28;1197;-89
2022/04/21 00:08:51;;;;;;;;;;;21.70;37.60;;;;;;683005;29;1233;-91
2022/04/21 00:09:13;;;;;;;;;;;21.70;35.70;;;;;;680547;29;1284;-91
2022/04/21 00:09:33;;;;;;;;;;;21.70;32.90;;;;;;680566;29;1162;-91
2022/04/21 00:09:54;;;;;;;;;;;21.80;34.40;;;;;;678043;29;1198;-92
2022/04/21 00:10:15;;;;;;;;;;;21.70;34.40;;;;;;675940;29;1240;-92
2022/04/21 00:10:36;;;;;;;;;;;21.80;33.10;;;;;;675453;29;1229;-89
2022/04/21 00:10:56;;;;;;;;;;;21.70;34.00;;;;;;677817;29;1200;-91
2022/04/21 00:11:17;;;;;;;;;;;21.80;35.10;;;;;;678196;29;1238;-91
2022/04/21 00:11:38;;;;;;;;;;;21.90;35.90;;;;;;678399;29;1401;-90
2022/04/21 00:11:58;;;;;;;;;;;21.70;34.10;;;;;;678372;29;1401;-91
2022/04/21 00:12:19;;;;;;;;;;;21.90;36.10;;;;;;677859;29;1480;-91
2022/04/21 00:12:40;;;;;;;;;;;21.70;34.20;;;;;;678315;29;1318;-89
2022/04/21 00:13:01;;;;;;;;;;;21.70;36.00;;;;;;679043;29;1547;-89
2022/04/21 00:13:22;;;;;;;;;;;21.70;34.70;;;;;;681047;29;1172;-91
2022/04/21 00:13:42;;;;;;;;;;;21.70;33.60;;;;;;678653;29;1420;-89
2022/04/21 00:14:04;;;;;;;;;;;21.70;35.00;;;;;;678311;29;1207;-89
2022/04/21 00:14:24;;;;;;;;;;;21.80;34.10;;;;;;678327;29;1439;-89
2022/04/21 00:14:45;;;;;;;;;;;21.60;35.20;;;;;;678856;29;1241;-90
2022/04/21 00:15:06;;;;;;;;;;;21.90;35.70;;;;;;679128;29;1254;-91
2022/04/21 00:15:27;;;;;;;;;;;21.60;31.90;;;;;;678692;29;1352;-90
2022/04/21 00:15:47;;;;;;;;;;;21.60;36.10;;;;;;678333;29;1283;-88
2022/04/21 00:16:08;;;;;;;;;;;21.60;36.30;;;;;;681130;29;1340;-89
2022/04/21 00:16:28;;;;;;;;;;;20.80;35.00;;;;;;678400;29;1304;-89
2022/04/21 00:16:49;;;;;;;;;;;21.90;34.90;;;;;;678359;29;1198;-89
2022/04/21 00:17:10;;;;;;;;;;;21.40;36.30;;;;;;680777;29;1213;-90
2022/04/21 00:17:30;;;;;;;;;;;21.70;37.20;;;;;;678547;29;1171;-90
2022/04/21 00:17:51;;;;;;;;;;;21.70;34.30;;;;;;678077;29;1301;-91
2022/04/21 00:18:12;;;;;;;;;;;21.60;34.20;;;;;;675705;29;1230;-90
2022/04/21 00:18:32;;;;;;;;;;;21.60;33.80;;;;;;675331;29;1163;-91
2022/04/21 00:18:53;;;;;;;;;;;21.70;33.70;;;;;;673214;29;1235;-91
2022/04/21 00:19:13;;;;;;;;;;;21.60;35.80;;;;;;673263;29;1442;-90
2022/04/21 00:19:34;;;;;;;;;;;21.40;36.30;;;;;;675699;29;1241;-90
2022/04/21 00:19:55;;;;;;;;;;;21.80;33.10;;;;;;675795;29;1449;-90
2022/04/21 00:20:16;;;;;;;;;;;21.60;36.30;;;;;;675638;29;1145;-90
2022/04/21 00:20:36;;;;;;;;;;;21.80;35.20;;;;;;675790;29;1244;-90
2022/04/21 00:20:59;;;;;;;;;;;21.60;35.40;;;;;;675452;29;1357;-91
2022/04/21 00:21:19;;;;;;;;;;;21.70;34.30;;;;;;676104;29;1395;-90
2022/04/21 00:23:37;;;;;;;;;;;21.70;31.80;;;;;;688176;28;582;-91
2022/04/21 00:23:57;;;;;;;;;;;21.60;32.80;;;;;;685847;28;1252;-90
2022/04/21 00:24:18;;;;;;;;;;;21.70;36.00;;;;;;683025;29;1531;-89
2022/04/21 00:24:38;;;;;;;;;;;21.60;35.50;;;;;;683163;29;1151;-91
2022/04/21 00:24:59;;;;;;;;;;;21.60;33.20;;;;;;683198;29;1325;-92
2022/04/21 00:25:20;;;;;;;;;;;19.20;32.70;;;;;;683238;29;1303;-91
2022/04/21 00:25:41;;;;;;;;;;;21.60;33.50;;;;;;683439;28;1289;-92
2022/04/21 00:26:02;;;;;;;;;;;21.60;32.50;;;;;;685973;28;1255;-92
2022/04/21 00:26:22;;;;;;;;;;;21.70;34.10;;;;;;683234;29;1087;-92
2022/04/21 00:26:43;;;;;;;;;;;21.60;33.50;;;;;;682990;29;1903;-93
2022/04/21 00:27:03;;;;;;;;;;;21.70;34.00;;;;;;683442;29;1230;-92
2022/04/21 00:27:24;;;;;;;;;;;22.60;33.40;;;;;;680548;29;1141;-93
2022/04/21 00:27:45;;;;;;;;;;;21.60;32.80;;;;;;678065;29;1224;-93
2022/04/21 00:28:06;;;;;;;;;;;21.60;32.10;;;;;;680695;29;1270;-93
2022/04/21 00:28:28;;;;;;;;;;;21.60;35.30;;;;;;680247;29;1257;-92
2022/04/21 00:28:49;;;;;;;;;;;21.70;31.70;;;;;;681168;29;1116;-92
2022/04/21 00:29:09;;;;;;;;;;;21.60;32.40;;;;;;681148;29;1189;-93
2022/04/21 00:29:30;;;;;;;;;;;21.60;32.50;;;;;;681145;29;1250;-92
2022/04/21 00:29:51;;;;;;;;;;;21.60;31.50;;;;;;683151;29;1234;-92
2022/04/21 00:30:12;;;;;;;;;;;21.60;33.50;;;;;;683389;29;1222;-91
2022/04/21 00:30:33;;;;;;;;;;;21.60;31.60;;;;;;680636;29;1249;-92
2022/04/21 00:30:53;;;;;;;;;;;21.60;32.20;;;;;;677888;29;1330;-91
2022/04/21 00:31:14;;;;;;;;;;;22.20;32.80;;;;;;677860;29;1188;-93
2022/04/21 00:31:35;;;;;;;;;;;21.60;33.70;;;;;;678310;29;1350;-92
2022/04/21 00:31:55;;;;;;;;;;;21.60;31.80;;;;;;678250;29;1195;-92
2022/04/21 00:32:16;;;;;;;;;;;21.60;32.10;;;;;;680408;29;1293;-92
2022/04/21 00:32:37;;;;;;;;;;;21.70;34.10;;;;;;678501;29;1235;-92
2022/04/21 00:32:57;;;;;;;;;;;21.60;32.40;;;;;;680283;29;880;-92
2022/04/21 00:33:18;;;;;;;;;;;21.60;32.40;;;;;;675631;29;1184;-91
2022/04/21 00:33:39;;;;;;;;;;;21.60;32.60;;;;;;678293;29;828;-91
2022/04/21 00:33:59;;;;;;;;;;;21.50;33.20;;;;;;678286;29;1379;-91
2022/04/21 00:34:20;;;;;;;;;;;21.50;34.70;;;;;;678276;29;1223;-91
2022/04/21 00:34:42;;;;;;;;;;;21.60;34.10;;;;;;680451;29;1260;-91
2022/04/21 00:35:03;;;;;;;;;;;21.60;31.50;;;;;;680773;29;1116;-91
2022/04/21 00:35:24;;;;;;;;;;;21.60;31.60;;;;;;680554;29;1197;-91
2022/04/21 00:35:44;;;;;;;;;;;21.60;31.40;;;;;;682751;29;1295;-91
2022/04/21 00:36:05;;;;;;;;;;;21.60;32.80;;;;;;680597;29;1251;-91
2022/04/21 00:36:25;;;;;;;;;;;21.60;32.70;;;;;;678086;29;1133;-91
2022/04/21 00:36:46;;;;;;;;;;;21.60;32.40;;;;;;677826;29;1191;-92
2022/04/21 00:37:06;;;;;;;;;;;21.60;32.80;;;;;;678276;29;1346;-92
2022/04/21 00:37:27;;;;;;;;;;;21.60;33.30;;;;;;680308;29;1295;-93
2022/04/21 00:37:50;;;;;;;;;;;21.70;32.30;;;;;;678220;29;1128;-92
2022/04/21 00:38:13;;;;;;;;;;;21.60;32.00;;;;;;677944;29;1239;-93
2022/04/21 00:38:33;;;;;;;;;;;21.80;32.40;;;;;;675384;29;1065;-93
2022/04/21 00:38:54;;;;;;;;;;;21.60;35.90;;;;;;673679;29;1210;-93
2022/04/21 00:39:15;;;;;;;;;;;21.60;34.80;;;;;;673709;29;1243;-92
2022/04/21 00:39:35;;;;;;;;;;;21.60;34.50;;;;;;675523;29;1334;-91
2022/04/21 00:39:56;;;;;;;;;;;21.70;34.20;;;;;;675805;29;1104;-92
2022/04/21 00:40:18;;;;;;;;;;;21.60;35.90;;;;;;678392;29;793;-91
2022/04/21 00:40:39;;;;;;;;;;;21.60;32.10;;;;;;678725;29;1269;-92
2022/04/21 00:40:59;;;;;;;;;;;21.60;36.10;;;;;;681047;29;1252;-91
2022/04/21 00:41:20;;;;;;;;;;;21.60;33.60;;;;;;683295;29;846;-92
2022/04/21 00:41:41;;;;;;;;;;;21.80;34.30;;;;;;680978;28;1272;-91
2022/04/21 00:42:02;;;;;;;;;;;21.60;31.90;;;;;;680662;29;1349;-92
2022/04/21 00:42:22;;;;;;;;;;;21.60;32.90;;;;;;683314;29;1197;-91
2022/04/21 00:42:44;;;;;;;;;;;21.60;33.90;;;;;;680645;29;1363;-92
2022/04/21 00:43:04;;;;;;;;;;;21.70;31.70;;;;;;680583;29;1377;-92
2022/04/21 00:43:28;;;;;;;;;;;19.70;32.90;;;;;;680736;29;1087;-93
2022/04/21 00:43:49;;;;;;;;;;;19.10;32.40;;;;;;678787;29;1139;-92
2022/04/21 00:44:09;;;;;;;;;;;20.10;32.60;;;;;;675038;29;1214;-92
2022/04/21 00:44:30;;;;;;;;;;;21.60;33.00;;;;;;678865;29;1319;-91
2022/04/21 00:44:51;;;;;;;;;;;21.60;34.10;;;;;;680500;29;952;-92
2022/04/21 00:45:15;;;;;;;;;;;21.60;34.30;;;;;;681427;29;1233;-91
2022/04/21 00:45:35;;;;;;;;;;;21.60;32.50;;;;;;681485;29;1151;-91
2022/04/21 00:45:56;;;;;;;;;;;21.60;33.50;;;;;;680581;29;1094;-92
2022/04/21 00:46:18;;;;;;;;;;;21.60;33.50;;;;;;680454;29;1313;-92
2022/04/21 00:46:38;;;;;;;;;;;21.60;32.90;;;;;;680774;29;1291;-92
2022/04/21 00:47:00;;;;;;;;;;;21.60;32.00;;;;;;681392;29;1975;-92
2022/04/21 00:47:21;;;;;;;;;;;21.60;31.60;;;;;;681219;29;1158;-91
2022/04/21 00:47:45;;;;;;;;;;;21.60;32.10;;;;;;680736;29;1261;-90
2022/04/21 00:48:06;;;;;;;;;;;21.70;32.10;;;;;;680537;29;1194;-92
2022/04/21 00:48:28;;;;;;;;;;;21.60;32.30;;;;;;680607;29;1391;-91
2022/04/21 00:48:49;;;;;;;;;;;21.60;32.00;;;;;;678092;29;1255;-92
2022/04/21 00:49:10;;;;;;;;;;;21.60;32.50;;;;;;678472;29;1416;-92
2022/04/21 00:49:31;;;;;;;;;;;21.60;31.70;;;;;;680669;29;1071;-92
2022/04/21 00:49:52;;;;;;;;;;;21.60;31.40;;;;;;681148;29;1305;-92
2022/04/21 00:50:15;;;;;;;;;;;21.60;32.20;;;;;;683755;28;1204;-93
2022/04/21 00:50:37;;;;;;;;;;;21.60;32.40;;;;;;686069;28;1205;-92
2022/04/21 00:50:57;;;;;;;;;;;21.60;32.90;;;;;;684215;28;1325;-92
2022/04/21 00:51:18;;;;;;;;;;;21.60;33.20;;;;;;682965;29;1121;-92
2022/04/21 00:51:38;;;;;;;;;;;21.60;32.60;;;;;;680755;29;1178;-92
2022/04/21 00:52:00;;;;;;;;;;;21.60;32.10;;;;;;678794;29;1289;-92
2022/04/21 00:52:21;;;;;;;;;;;21.60;31.60;;;;;;680575;29;1112;-93
2022/04/21 00:52:42;;;;;;;;;;;21.50;35.00;;;;;;680948;29;1233;-92
2022/04/21 00:53:03;;;;;;;;;;;21.50;31.50;;;;;;680722;29;1282;-92
2022/04/21 00:53:24;;;;;;;;;;;21.60;32.00;;;;;;678051;29;1493;-93
2022/04/21 00:53:45;;;;;;;;;;;21.60;31.80;;;;;;678596;29;1268;-92
2022/04/21 00:54:05;;;;;;;;;;;21.60;35.90;;;;;;680574;29;1209;-93
2022/04/21 00:54:29;;;;;;;;;;;21.60;33.30;;;;;;678332;29;1173;-92
2022/04/21 00:54:50;;;;;;;;;;;21.50;33.10;;;;;;680344;29;1337;-92
2022/04/21 00:55:10;;;;;;;;;;;21.50;34.20;;;;;;681360;29;1232;-92
2022/04/21 00:55:31;;;;;;;;;;;21.60;33.10;;;;;;680375;29;1396;-93
2022/04/21 00:55:53;;;;;;;;;;;21.70;33.50;;;;;;679480;29;833;-93
2022/04/21 00:56:14;;;;;;;;;;;21.60;34.90;;;;;;681935;29;1364;-92
2022/04/21 00:56:34;;;;;;;;;;;21.50;32.10;;;;;;684980;28;1257;-93
2022/04/21 00:56:55;;;;;;;;;;;21.60;34.60;;;;;;689417;28;1266;-93
2022/04/21 00:57:16;;;;;;;;;;;21.70;34.10;;;;;;689682;28;1182;-92
2022/04/21 00:57:37;;;;;;;;;;;21.50;32.60;;;;;;689337;28;1393;-92
2022/04/21 00:58:01;;;;;;;;;;;21.60;33.60;;;;;;689377;28;1234;-91
2022/04/21 00:58:21;;;;;;;;;;;21.60;32.70;;;;;;686328;28;1324;-92
2022/04/21 00:58:43;;;;;;;;;;;21.50;33.60;;;;;;683638;29;1260;-92
2022/04/21 00:59:04;;;;;;;;;;;21.60;32.60;;;;;;681166;29;1438;-93
2022/04/21 00:59:26;;;;;;;;;;;21.60;33.60;;;;;;678374;29;1452;-93
2022/04/21 00:59:46;;;;;;;;;;;21.60;32.00;;;;;;678647;29;1323;-93
2022/04/21 01:00:07;;;;;;;;;;;21.60;35.60;;;;;;679220;29;1319;-91
2022/04/21 01:00:28;;;;;;;;;;;21.50;32.70;;;;;;681804;29;1132;-92
2022/04/21 01:00:48;;;;;;;;;;;21.60;33.40;;;;;;681062;28;1245;-92
2022/04/21 01:02:46;;;;;;;;;;;21.50;35.20;;;;;;678947;29;1194;-92
2022/04/21 01:02:51;;;;;;;;;;;21.60;31.60;;;;;;686570;28;681;-91
2022/04/21 01:03:14;;;;;;;;;;;21.60;31.60;;;;;;689118;28;1091;-91
2022/04/21 01:03:35;;;;;;;;;;;21.60;32.20;;;;;;686387;28;1252;-93
2022/04/21 01:03:56;;;;;;;;;;;21.60;33.80;;;;;;686366;28;1404;-92
2022/04/21 01:04:18;;;;;;;;;;;21.60;35.00;;;;;;686458;28;1185;-92
2022/04/21 01:04:41;;;;;;;;;;;21.60;31.60;;;;;;686481;28;1546;-91
2022/04/21 01:05:02;;;;;;;;;;;21.70;32.20;;;;;;687728;28;973;-90
2022/04/21 01:05:29;;;;;;;;;;;21.70;34.70;;;;;;686397;28;1244;-91
2022/04/21 01:05:49;;;;;;;;;;;21.70;31.30;;;;;;686502;28;1201;-92
2022/04/21 01:06:10;;;;;;;;;;;21.50;32.60;;;;;;683685;29;1123;-91
2022/04/21 01:06:30;;;;;;;;;;;21.60;33.80;;;;;;681138;29;1285;-93
2022/04/21 01:06:51;;;;;;;;;;;21.60;32.80;;;;;;681135;29;1918;-91
2022/04/21 01:07:13;;;;;;;;;;;21.60;31.70;;;;;;682173;29;1170;-92
2022/04/21 01:07:34;;;;;;;;;;;21.60;31.80;;;;;;683729;29;1237;-92
2022/04/21 01:07:57;;;;;;;;;;;21.50;34.90;;;;;;683739;29;1230;-92
2022/04/21 01:08:18;;;;;;;;;;;21.60;32.50;;;;;;681019;29;1486;-92
2022/04/21 01:08:39;;;;;;;;;;;21.60;33.80;;;;;;678694;29;1217;-92
2022/04/21 01:08:59;;;;;;;;;;;21.70;33.20;;;;;;676712;29;1318;-92
2022/04/21 01:09:20;;;;;;;;;;;21.60;32.40;;;;;;679249;29;1218;-90
2022/04/21 01:09:41;;;;;;;;;;;21.60;31.50;;;;;;681774;29;1355;-92
2022/04/21 01:10:04;;;;;;;;;;;21.60;34.80;;;;;;683941;28;1093;-92
2022/04/21 01:10:26;;;;;;;;;;;21.60;31.20;;;;;;684561;28;1292;-90
2022/04/21 01:10:48;;;;;;;;;;;21.60;32.40;;;;;;684714;28;1294;-91
2022/04/21 01:11:10;;;;;;;;;;;21.60;31.60;;;;;;683819;29;1139;-92
2022/04/21 01:11:30;;;;;;;;;;;21.50;34.40;;;;;;684781;28;1234;-92
2022/04/21 01:11:51;;;;;;;;;;;21.50;34.00;;;;;;686558;28;827;-92
2022/04/21 01:12:13;;;;;;;;;;;21.60;32.00;;;;;;686370;28;1122;-92
2022/04/21 01:12:34;;;;;;;;;;;21.60;31.70;;;;;;687340;28;1301;-92
2022/04/21 01:12:54;;;;;;;;;;;20.00;31.20;;;;;;686417;28;1201;-93
2022/04/21 01:13:16;;;;;;;;;;;21.70;33.00;;;;;;683665;29;1231;-92
2022/04/21 01:13:37;;;;;;;;;;;21.60;35.00;;;;;;683732;29;1313;-91
2022/04/21 01:13:59;;;;;;;;;;;21.60;32.60;;;;;;681056;29;1197;-92
2022/04/21 01:14:19;;;;;;;;;;;21.60;31.60;;;;;;678995;29;1282;-91
2022/04/21 01:14:40;;;;;;;;;;;21.60;32.80;;;;;;681588;29;1245;-93
2022/04/21 01:15:00;;;;;;;;;;;21.60;33.50;;;;;;683798;28;1145;-92
2022/04/21 01:15:22;;;;;;;;;;;21.60;32.30;;;;;;681187;29;1285;-92
2022/04/21 01:15:43;;;;;;;;;;;21.50;31.60;;;;;;681119;29;1337;-90
2022/04/21 01:16:05;;;;;;;;;;;21.60;33.10;;;;;;683630;29;1398;-91
2022/04/21 01:16:26;;;;;;;;;;;21.50;35.70;;;;;;681036;29;1225;-92
2022/04/21 01:16:47;;;;;;;;;;;21.50;33.60;;;;;;681016;29;1095;-89
2022/04/21 01:17:08;;;;;;;;;;;21.60;33.90;;;;;;683863;29;1108;-91
2022/04/21 01:17:35;;;;;;;;;;;21.60;32.00;;;;;;681070;29;1198;-91
2022/04/21 01:17:56;;;;;;;;;;;21.70;31.20;;;;;;683635;29;1182;-92
2022/04/21 01:18:25;;;;;;;;;;;21.60;31.70;;;;;;685081;28;803;-91
2022/04/21 01:18:45;;;;;;;;;;;21.60;31.60;;;;;;686193;28;1186;-90
2022/04/21 01:19:06;;;;;;;;;;;21.60;34.00;;;;;;686604;28;1261;-91
2022/04/21 01:19:27;;;;;;;;;;;21.60;32.60;;;;;;686671;28;1086;-90
2022/04/21 01:19:47;;;;;;;;;;;21.60;32.90;;;;;;686489;28;1277;-91
2022/04/21 01:20:09;;;;;;;;;;;21.70;33.40;;;;;;683819;29;1195;-90
2022/04/21 01:20:30;;;;;;;;;;;21.60;31.40;;;;;;683933;29;865;-90
2022/04/21 01:20:50;;;;;;;;;;;21.60;32.20;;;;;;681731;29;1262;-90
2022/04/21 01:21:11;;;;;;;;;;;18.80;32.00;;;;;;681283;29;1239;-90
2022/04/21 01:21:32;;;;;;;;;;;21.50;36.80;;;;;;679015;29;1398;-91
2022/04/21 01:21:52;;;;;;;;;;;21.60;34.50;;;;;;679045;29;1225;-92
2022/04/21 01:22:13;;;;;;;;;;;21.60;34.00;;;;;;678633;29;1232;-91
2022/04/21 01:22:34;;;;;;;;;;;21.60;32.10;;;;;;680921;29;1449;-92
2022/04/21 01:22:54;;;;;;;;;;;21.60;34.40;;;;;;678528;29;1234;-91
2022/04/21 01:23:15;;;;;;;;;;;21.60;32.30;;;;;;681123;29;1242;-92
2022/04/21 01:23:36;;;;;;;;;;;21.70;34.50;;;;;;680838;29;1170;-91
2022/04/21 01:23:56;;;;;;;;;;;21.70;33.60;;;;;;678708;29;1233;-90
2022/04/21 01:24:17;;;;;;;;;;;21.60;33.10;;;;;;680834;29;1239;-91
2022/04/21 01:24:38;;;;;;;;;;;21.60;34.40;;;;;;681148;29;1191;-91
2022/04/21 01:24:59;;;;;;;;;;;21.60;33.50;;;;;;681189;29;1307;-91
2022/04/21 01:25:20;;;;;;;;;;;21.60;31.50;;;;;;681345;29;1166;-91
2022/04/21 01:25:42;;;;;;;;;;;21.60;31.40;;;;;;683687;29;1296;-91
2022/04/21 01:26:02;;;;;;;;;;;21.60;34.10;;;;;;684116;28;1301;-90
2022/04/21 01:26:25;;;;;;;;;;;21.60;33.50;;;;;;684135;28;1111;-91
2022/04/21 01:26:46;;;;;;;;;;;21.60;32.80;;;;;;686356;28;1898;-91
2022/04/21 01:27:06;;;;;;;;;;;21.60;34.10;;;;;;683709;29;1275;-90
2022/04/21 01:27:29;;;;;;;;;;;21.60;32.60;;;;;;683770;29;1248;-90
2022/04/21 01:27:51;;;;;;;;;;;21.70;32.00;;;;;;683661;29;1219;-90
2022/04/21 01:28:12;;;;;;;;;;;21.70;32.00;;;;;;682074;29;1308;-90
2022/04/21 01:28:33;;;;;;;;;;;21.60;32.60;;;;;;681186;29;1394;-91
2022/04/21 01:28:54;;;;;;;;;;;21.60;31.90;;;;;;681009;29;1323;-90
2022/04/21 01:29:15;;;;;;;;;;;21.60;31.40;;;;;;679311;29;1239;-91
2022/04/21 01:29:36;;;;;;;;;;;21.60;32.50;;;;;;678764;29;1214;-91
2022/04/21 01:29:56;;;;;;;;;;;21.60;31.50;;;;;;678325;29;1547;-89
2022/04/21 01:30:17;;;;;;;;;;;21.60;31.30;;;;;;675983;29;1187;-91
2022/04/21 01:30:38;;;;;;;;;;;21.60;32.20;;;;;;676175;29;1309;-91
2022/04/21 01:30:59;;;;;;;;;;;21.60;31.90;;;;;;678410;29;1319;-91
2022/04/21 01:31:22;;;;;;;;;;;21.60;33.10;;;;;;678766;29;1408;-90
2022/04/21 01:31:42;;;;;;;;;;;21.60;31.90;;;;;;681572;29;1352;-90
2022/04/21 01:32:03;;;;;;;;;;;21.60;32.60;;;;;;684279;28;1149;-90
2022/04/21 01:32:24;;;;;;;;;;;21.70;31.50;;;;;;684372;28;1250;-91
2022/04/21 01:32:46;;;;;;;;;;;21.60;32.30;;;;;;683301;29;1282;-91
2022/04/21 01:33:07;;;;;;;;;;;21.60;31.30;;;;;;683744;29;830;-90
2022/04/21 01:33:28;;;;;;;;;;;21.70;31.60;;;;;;684248;28;1527;-91
2022/04/21 01:33:48;;;;;;;;;;;21.60;32.30;;;;;;686224;28;1364;-91
2022/04/21 01:34:09;;;;;;;;;;;21.60;32.90;;;;;;686913;28;1201;-92
2022/04/21 01:34:29;;;;;;;;;;;21.60;33.00;;;;;;689011;28;1264;-90
2022/04/21 01:34:50;;;;;;;;;;;21.60;31.40;;;;;;689000;28;1217;-90
2022/04/21 01:35:11;;;;;;;;;;;21.60;32.00;;;;;;686332;28;1326;-89
2022/04/21 01:35:32;;;;;;;;;;;21.60;31.50;;;;;;683346;29;1435;-90
2022/04/21 01:35:52;;;;;;;;;;;21.60;33.90;;;;;;683876;28;1127;-91
2022/04/21 01:36:13;;;;;;;;;;;21.60;33.10;;;;;;686019;28;1173;-91
2022/04/21 01:36:33;;;;;;;;;;;21.60;32.10;;;;;;683907;28;1241;-90
2022/04/21 01:41:28;;;;;;;;;;;20.70;30.70;;;;;;689265;28;668;-91
2022/04/21 01:41:49;;;;;;;;;;;21.60;32.00;;;;;;688951;28;1209;-91
2022/04/21 01:42:16;;;;;;;;;;;21.60;31.20;;;;;;688968;28;1260;-90
2022/04/21 01:42:37;;;;;;;;;;;21.80;30.90;;;;;;689190;28;799;-91
2022/04/21 01:42:57;;;;;;;;;;;21.60;31.90;;;;;;688811;28;1286;-91
2022/04/21 01:43:18;;;;;;;;;;;21.60;31.40;;;;;;688915;28;1181;-91
2022/04/21 01:43:40;;;;;;;;;;;21.60;31.30;;;;;;688986;28;1439;-89
2022/04/21 01:44:02;;;;;;;;;;;21.60;31.10;;;;;;688938;28;1149;-90
2022/04/21 01:44:22;;;;;;;;;;;21.60;31.70;;;;;;688908;28;1231;-91
2022/04/21 01:44:43;;;;;;;;;;;21.60;31.90;;;;;;688936;28;1361;-91
2022/04/21 01:45:03;;;;;;;;;;;21.60;33.90;;;;;;689019;28;1153;-91
2022/04/21 01:45:24;;;;;;;;;;;21.70;32.70;;;;;;688992;28;897;-91
2022/04/21 01:45:45;;;;;;;;;;;21.60;33.40;;;;;;689014;28;1051;-91
2022/04/21 01:46:05;;;;;;;;;;;21.60;33.80;;;;;;688699;28;1316;-91
2022/04/21 01:46:26;;;;;;;;;;;21.60;33.70;;;;;;683917;28;1186;-91
2022/04/21 01:46:48;;;;;;;;;;;21.70;34.80;;;;;;688810;28;1891;-91
2022/04/21 01:47:09;;;;;;;;;;;21.60;34.70;;;;;;683587;29;1322;-92
2022/04/21 01:47:29;;;;;;;;;;;21.60;31.40;;;;;;683612;29;1335;-90
2022/04/21 01:47:50;;;;;;;;;;;21.60;32.00;;;;;;684262;28;1158;-91
2022/04/21 01:48:11;;;;;;;;;;;21.60;33.40;;;;;;684144;28;1352;-91
2022/04/21 01:48:31;;;;;;;;;;;21.60;31.80;;;;;;686267;28;1229;-91
2022/04/21 01:48:52;;;;;;;;;;;21.70;31.80;;;;;;683605;29;1363;-90
2022/04/21 01:49:13;;;;;;;;;;;21.60;33.70;;;;;;683305;29;1308;-91
2022/04/21 01:49:34;;;;;;;;;;;21.60;30.70;;;;;;684043;28;1297;-90
2022/04/21 01:49:55;;;;;;;;;;;21.60;31.80;;;;;;685889;28;779;-93
2022/04/21 01:50:15;;;;;;;;;;;21.60;32.50;;;;;;686227;28;1206;-92
2022/04/21 01:50:36;;;;;;;;;;;21.60;32.00;;;;;;683506;29;1212;-91
2022/04/21 01:50:56;;;;;;;;;;;21.60;32.40;;;;;;683485;29;1237;-91
2022/04/21 01:51:17;;;;;;;;;;;21.50;32.60;;;;;;681099;29;1321;-91
2022/04/21 01:51:38;;;;;;;;;;;21.50;31.20;;;;;;680954;29;1303;-91
2022/04/21 01:51:58;;;;;;;;;;;21.60;31.50;;;;;;680880;29;938;-91
2022/04/21 01:52:19;;;;;;;;;;;21.60;31.90;;;;;;678378;29;1218;-91
2022/04/21 01:52:39;;;;;;;;;;;21.50;31.30;;;;;;678515;29;1308;-91
2022/04/21 01:53:00;;;;;;;;;;;21.60;34.00;;;;;;681257;29;1413;-90
2022/04/21 01:53:21;;;;;;;;;;;21.50;31.70;;;;;;681299;29;1217;-91
2022/04/21 01:53:41;;;;;;;;;;;21.60;32.20;;;;;;680967;29;1379;-91
2022/04/21 01:54:02;;;;;;;;;;;21.60;31.30;;;;;;680604;29;1399;-91
2022/04/21 01:54:22;;;;;;;;;;;21.60;31.50;;;;;;680510;29;1294;-90
2022/04/21 01:54:44;;;;;;;;;;;21.50;32.70;;;;;;675700;29;1388;-89
2022/04/21 01:55:05;;;;;;;;;;;21.60;31.20;;;;;;676086;29;1435;-91
2022/04/21 01:55:26;;;;;;;;;;;21.50;31.60;;;;;;678658;29;1189;-90
2022/04/21 01:55:47;;;;;;;;;;;21.70;31.40;;;;;;683038;29;1427;-90
2022/04/21 01:56:08;;;;;;;;;;;21.50;33.20;;;;;;678199;29;1238;-90
2022/04/21 01:56:29;;;;;;;;;;;21.50;33.70;;;;;;676289;29;1422;-89
2022/04/21 01:56:49;;;;;;;;;;;19.10;32.00;;;;;;678287;29;1142;-90
2022/04/21 01:57:10;;;;;;;;;;;21.50;31.80;;;;;;676219;29;1354;-91
2022/04/21 01:57:30;;;;;;;;;;;21.60;34.20;;;;;;678590;29;1150;-90
2022/04/21 01:57:51;;;;;;;;;;;21.60;31.80;;;;;;678100;29;1438;-90
2022/04/21 01:58:12;;;;;;;;;;;21.60;31.40;;;;;;678446;29;1227;-90
2022/04/21 01:58:33;;;;;;;;;;;21.60;31.10;;;;;;678640;29;1223;-90
2022/04/21 01:58:53;;;;;;;;;;;21.50;32.00;;;;;;681063;29;1238;-87
2022/04/21 01:59:14;;;;;;;;;;;21.50;34.20;;;;;;680921;29;1292;-92
2022/04/21 01:59:36;;;;;;;;;;;21.50;32.30;;;;;;680517;29;1306;-90
2022/04/21 01:59:56;;;;;;;;;;;21.60;32.20;;;;;;681286;29;1389;-90
2022/04/21 02:00:17;;;;;;;;;;;21.50;34.10;;;;;;683326;29;1240;-90
2022/04/21 02:00:38;;;;;;;;;;;21.50;34.30;;;;;;683140;29;1254;-90
2022/04/21 02:00:58;;;;;;;;;;;21.60;31.40;;;;;;681352;29;1103;-91
2022/04/21 02:01:19;;;;;;;;;;;21.50;33.80;;;;;;683408;29;1240;-90
2022/04/21 02:01:40;;;;;;;;;;;21.60;32.00;;;;;;683157;29;1146;-90
2022/04/21 02:02:00;;;;;;;;;;;21.50;32.00;;;;;;678258;29;1403;-91
2022/04/21 02:02:21;;;;;;;;;;;21.50;31.70;;;;;;678564;29;1152;-90
2022/04/21 02:02:41;;;;;;;;;;;21.50;32.10;;;;;;678182;29;1085;-90
2022/04/21 02:03:02;;;;;;;;;;;21.50;32.40;;;;;;678639;29;1398;-91
2022/04/21 02:03:22;;;;;;;;;;;19.50;32.60;;;;;;678501;29;1191;-90
2022/04/21 02:03:43;;;;;;;;;;;21.50;32.60;;;;;;681461;29;1214;-89
2022/04/21 02:04:04;;;;;;;;;;;20.20;30.90;;;;;;683703;29;1433;-91
2022/04/21 02:04:25;;;;;;;;;;;21.50;32.20;;;;;;683533;29;1198;-89
2022/04/21 02:04:45;;;;;;;;;;;21.50;32.40;;;;;;681154;29;1213;-88
2022/04/21 02:05:06;;;;;;;;;;;21.50;33.30;;;;;;680896;29;1208;-90
2022/04/21 02:05:27;;;;;;;;;;;21.50;33.40;;;;;;678257;29;1296;-89
2022/04/21 02:05:47;;;;;;;;;;;21.50;34.50;;;;;;676027;29;1207;-90
2022/04/21 02:06:08;;;;;;;;;;;21.40;34.50;;;;;;678247;29;1253;-90
2022/04/21 02:06:28;;;;;;;;;;;21.60;34.40;;;;;;677866;29;1265;-90
2022/04/21 02:06:49;;;;;;;;;;;21.50;33.50;;;;;;675908;29;1910;-90
2022/04/21 02:07:09;;;;;;;;;;;21.40;32.60;;;;;;678453;29;1251;-89
2022/04/21 02:07:30;;;;;;;;;;;21.60;34.00;;;;;;678265;29;1223;-89
2022/04/21 02:07:51;;;;;;;;;;;21.50;33.40;;;;;;678253;29;1287;-88
2022/04/21 02:08:12;;;;;;;;;;;21.50;33.00;;;;;;678641;29;1225;-89
2022/04/21 02:08:33;;;;;;;;;;;21.50;36.40;;;;;;681343;29;1222;-89
2022/04/21 02:08:54;;;;;;;;;;;21.40;34.30;;;;;;681302;29;1242;-91
2022/04/21 02:09:14;;;;;;;;;;;21.40;33.50;;;;;;683575;29;1079;-91
2022/04/21 02:09:35;;;;;;;;;;;21.50;33.10;;;;;;683527;29;1198;-90
2022/04/21 02:09:56;;;;;;;;;;;21.40;32.90;;;;;;681312;29;1387;-89
2022/04/21 02:11:19;;;;;;;;;;;21.50;31.10;;;;;;680946;29;658;-92
2022/04/21 02:11:40;;;;;;;;;;;21.50;31.10;;;;;;683776;28;1190;-91
2022/04/21 02:12:01;;;;;;;;;;;21.50;32.60;;;;;;683507;29;1273;-90
2022/04/21 02:12:26;;;;;;;;;;;21.40;32.20;;;;;;683514;29;1201;-91
2022/04/21 02:12:47;;;;;;;;;;;21.40;31.40;;;;;;681079;29;1239;-91
2022/04/21 02:13:08;;;;;;;;;;;21.40;32.90;;;;;;680959;29;1201;-91
2022/04/21 02:13:28;;;;;;;;;;;21.40;34.30;;;;;;681790;29;1250;-91
2022/04/21 02:13:49;;;;;;;;;;;21.40;32.90;;;;;;680898;29;1253;-90
2022/04/21 02:14:09;;;;;;;;;;;21.40;32.80;;;;;;678156;29;1254;-92
2022/04/21 02:14:30;;;;;;;;;;;21.40;33.70;;;;;;680745;29;1220;-92
2022/04/21 02:14:51;;;;;;;;;;;21.40;32.60;;;;;;678611;29;1279;-90